sensor_id;sensor_type;location;lat;lon;timestamp;pressure;altitude;pressure_sealevel;temperature;humidity
66021;BME280;52789;59.980;30.346;2023-02-04T00:01:50;101386.81;;;-3.63;96.01
66021;BME280;52789;59.980;30.346;2023-02-04T00:04:16;101397.91;;;-3.58;96.33
66021;BME280;52789;59.980;30.346;2023-02-04T00:06:41;101398.75;;;-3.57;96.62
66021;BME280;52789;59.980;30.346;2023-02-04T00:09:07;101400.41;;;-3.55;96.29
66021;BME280;52789;59.980;30.346;2023-02-04T00:11:32;101397.56;;;-3.49;96.86
66021;BME280;52789;59.980;30.346;2023-02-04T00:13:57;101404.50;;;-3.49;96.60
66021;BME280;52789;59.980;30.346;2023-02-04T00:16:22;101401.59;;;-3.63;96.39
66021;BME280;52789;59.980;30.346;2023-02-04T00:18:48;101410.72;;;-3.75;97.42
66021;BME280;52789;59.980;30.346;2023-02-04T00:21:13;101411.50;;;-3.73;97.49
66021;BME280;52789;59.980;30.346;2023-02-04T00:23:40;101412.91;;;-3.64;97.46
66021;BME280;52789;59.980;30.346;2023-02-04T00:26:05;101413.88;;;-3.67;97.84
66021;BME280;52789;59.980;30.346;2023-02-04T00:28:30;101408.66;;;-3.67;97.24
66021;BME280;52789;59.980;30.346;2023-02-04T00:30:56;101416.25;;;-3.61;97.28
66021;BME280;52789;59.980;30.346;2023-02-04T00:33:22;101416.00;;;-3.55;97.26
66021;BME280;52789;59.980;30.346;2023-02-04T00:35:47;101424.50;;;-3.50;97.60
66021;BME280;52789;59.980;30.346;2023-02-04T00:38:12;101422.00;;;-3.53;97.05
66021;BME280;52789;59.980;30.346;2023-02-04T00:40:38;101431.81;;;-3.59;97.62
66021;BME280;52789;59.980;30.346;2023-02-04T00:43:03;101437.13;;;-3.62;97.65
66021;BME280;52789;59.980;30.346;2023-02-04T00:45:28;101436.41;;;-3.66;97.88
66021;BME280;52789;59.980;30.346;2023-02-04T00:47:54;101451.06;;;-3.63;97.67
66021;BME280;52789;59.980;30.346;2023-02-04T00:50:19;101440.66;;;-3.63;97.80
66021;BME280;52789;59.980;30.346;2023-02-04T00:52:44;101448.63;;;-3.68;97.36
66021;BME280;52789;59.980;30.346;2023-02-04T00:55:10;101460.06;;;-3.72;98.18
66021;BME280;52789;59.980;30.346;2023-02-04T00:57:36;101456.78;;;-3.79;98.14
66021;BME280;52789;59.980;30.346;2023-02-04T01:00:02;101462.97;;;-3.81;99.05
66021;BME280;52789;59.980;30.346;2023-02-04T01:02:29;101461.25;;;-3.82;98.99
66021;BME280;52789;59.980;30.346;2023-02-04T01:04:55;101466.22;;;-3.75;98.67
66021;BME280;52789;59.980;30.346;2023-02-04T01:07:20;101465.94;;;-3.67;99.17
66021;BME280;52789;59.980;30.346;2023-02-04T01:09:45;101463.84;;;-3.57;99.06
66021;BME280;52789;59.980;30.346;2023-02-04T01:12:11;101475.16;;;-3.58;98.63
66021;BME280;52789;59.980;30.346;2023-02-04T01:14:36;101470.91;;;-3.61;98.39
66021;BME280;52789;59.980;30.346;2023-02-04T01:17:01;101469.84;;;-3.55;98.17
66021;BME280;52789;59.980;30.346;2023-02-04T01:19:27;101475.78;;;-3.52;97.97
66021;BME280;52789;59.980;30.346;2023-02-04T01:21:52;101478.44;;;-3.53;97.99
66021;BME280;52789;59.980;30.346;2023-02-04T01:24:17;101481.22;;;-3.58;98.38
66021;BME280;52789;59.980;30.346;2023-02-04T01:26:43;101483.03;;;-3.60;98.24
66021;BME280;52789;59.980;30.346;2023-02-04T01:29:08;101471.03;;;-3.64;98.75
66021;BME280;52789;59.980;30.346;2023-02-04T01:31:34;101486.75;;;-3.67;98.88
66021;BME280;52789;59.980;30.346;2023-02-04T01:34:00;101483.31;;;-3.67;98.53
66021;BME280;52789;59.980;30.346;2023-02-04T01:36:25;101488.34;;;-3.63;98.55
66021;BME280;52789;59.980;30.346;2023-02-04T01:38:50;101488.25;;;-3.60;98.67
66021;BME280;52789;59.980;30.346;2023-02-04T01:41:16;101493.44;;;-3.60;99.44
66021;BME280;52789;59.980;30.346;2023-02-04T01:43:42;101498.66;;;-3.60;98.52
66021;BME280;52789;59.980;30.346;2023-02-04T01:46:08;101500.41;;;-3.60;98.65
66021;BME280;52789;59.980;30.346;2023-02-04T01:48:33;101505.66;;;-3.62;99.13
66021;BME280;52789;59.980;30.346;2023-02-04T01:51:01;101497.19;;;-3.67;98.71
66021;BME280;52789;59.980;30.346;2023-02-04T01:53:29;101504.03;;;-3.64;99.31
66021;BME280;52789;59.980;30.346;2023-02-04T01:56:22;101510.88;;;-3.62;99.71
66021;BME280;52789;59.980;30.346;2023-02-04T01:58:48;101509.06;;;-3.60;99.13
66021;BME280;52789;59.980;30.346;2023-02-04T02:01:33;101521.06;;;-3.56;99.00
66021;BME280;52789;59.980;30.346;2023-02-04T02:04:01;101517.56;;;-3.55;98.81
66021;BME280;52789;59.980;30.346;2023-02-04T02:06:26;101521.84;;;-3.54;98.74
66021;BME280;52789;59.980;30.346;2023-02-04T02:08:52;101530.53;;;-3.53;98.83
66021;BME280;52789;59.980;30.346;2023-02-04T02:11:17;101534.03;;;-3.54;99.16
66021;BME280;52789;59.980;30.346;2023-02-04T02:13:42;101539.91;;;-3.49;99.00
66021;BME280;52789;59.980;30.346;2023-02-04T02:16:08;101541.38;;;-3.40;99.55
66021;BME280;52789;59.980;30.346;2023-02-04T02:18:33;101543.06;;;-3.39;99.00
66021;BME280;52789;59.980;30.346;2023-02-04T02:20:59;101537.88;;;-3.39;99.32
66021;BME280;52789;59.980;30.346;2023-02-04T02:26:12;101555.19;;;-3.38;98.43
66021;BME280;52789;59.980;30.346;2023-02-04T02:28:37;101553.72;;;-3.46;98.46
66021;BME280;52789;59.980;30.346;2023-02-04T02:31:02;101567.63;;;-3.47;98.78
66021;BME280;52789;59.980;30.346;2023-02-04T02:33:28;101550.34;;;-3.49;98.80
66021;BME280;52789;59.980;30.346;2023-02-04T02:35:53;101566.03;;;-3.51;99.56
66021;BME280;52789;59.980;30.346;2023-02-04T02:38:18;101559.00;;;-3.49;100.00
66021;BME280;52789;59.980;30.346;2023-02-04T02:40:44;101558.00;;;-3.45;100.00
66021;BME280;52789;59.980;30.346;2023-02-04T02:43:14;101570.03;;;-3.40;99.56
66021;BME280;52789;59.980;30.346;2023-02-04T02:45:39;101573.41;;;-3.38;99.02
66021;BME280;52789;59.980;30.346;2023-02-04T02:48:05;101582.13;;;-3.39;98.85
66021;BME280;52789;59.980;30.346;2023-02-04T02:50:31;101581.28;;;-3.40;99.21
66021;BME280;52789;59.980;30.346;2023-02-04T02:52:56;101590.84;;;-3.40;99.38
66021;BME280;52789;59.980;30.346;2023-02-04T02:55:23;101590.84;;;-3.40;98.85
66021;BME280;52789;59.980;30.346;2023-02-04T02:57:50;101595.91;;;-3.36;99.13
66021;BME280;52789;59.980;30.346;2023-02-04T03:00:17;101599.28;;;-3.34;98.80
66021;BME280;52789;59.980;30.346;2023-02-04T03:02:44;101604.44;;;-3.32;98.62
66021;BME280;52789;59.980;30.346;2023-02-04T03:05:14;101607.06;;;-3.32;98.47
66021;BME280;52789;59.980;30.346;2023-02-04T03:07:39;101611.47;;;-3.34;98.28
66021;BME280;52789;59.980;30.346;2023-02-04T03:10:04;101618.53;;;-3.38;98.50
66021;BME280;52789;59.980;30.346;2023-02-04T03:12:30;101617.59;;;-3.35;98.49
66021;BME280;52789;59.980;30.346;2023-02-04T03:14:55;101621.94;;;-3.36;98.74
66021;BME280;52789;59.980;30.346;2023-02-04T03:17:20;101634.91;;;-3.34;98.44
66021;BME280;52789;59.980;30.346;2023-02-04T03:19:46;101634.69;;;-3.28;98.83
66021;BME280;52789;59.980;30.346;2023-02-04T03:22:12;101634.69;;;-3.28;98.17
66021;BME280;52789;59.980;30.346;2023-02-04T03:24:38;101641.44;;;-3.23;98.26
66021;BME280;52789;59.980;30.346;2023-02-04T03:27:03;101644.78;;;-3.19;98.25
66021;BME280;52789;59.980;30.346;2023-02-04T03:29:28;101652.47;;;-3.15;98.17
66021;BME280;52789;59.980;30.346;2023-02-04T03:31:54;101652.53;;;-3.16;97.40
66021;BME280;52789;59.980;30.346;2023-02-04T03:34:20;101650.91;;;-3.20;97.99
66021;BME280;52789;59.980;30.346;2023-02-04T03:36:46;101654.56;;;-3.26;97.87
66021;BME280;52789;59.980;30.346;2023-02-04T03:39:12;101660.63;;;-3.25;98.09
66021;BME280;52789;59.980;30.346;2023-02-04T03:41:37;101665.75;;;-3.22;98.57
66021;BME280;52789;59.980;30.346;2023-02-04T03:44:02;101667.53;;;-3.24;98.10
66021;BME280;52789;59.980;30.346;2023-02-04T03:46:28;101671.69;;;-3.19;98.78
66021;BME280;52789;59.980;30.346;2023-02-04T03:48:53;101678.63;;;-3.18;97.81
66021;BME280;52789;59.980;30.346;2023-02-04T03:51:18;101676.06;;;-3.19;97.92
66021;BME280;52789;59.980;30.346;2023-02-04T03:53:44;101686.41;;;-3.16;97.77
66021;BME280;52789;59.980;30.346;2023-02-04T03:56:09;101676.03;;;-3.18;97.92
66021;BME280;52789;59.980;30.346;2023-02-04T03:58:34;101680.34;;;-3.17;97.67
66021;BME280;52789;59.980;30.346;2023-02-04T04:01:00;101689.97;;;-3.20;98.37
66021;BME280;52789;59.980;30.346;2023-02-04T04:03:25;101696.88;;;-3.18;97.60
66021;BME280;52789;59.980;30.346;2023-02-04T04:05:50;101701.25;;;-3.20;97.80
66021;BME280;52789;59.980;30.346;2023-02-04T04:08:16;101700.16;;;-3.13;98.49
66021;BME280;52789;59.980;30.346;2023-02-04T04:10:41;101703.50;;;-3.09;97.92
66021;BME280;52789;59.980;30.346;2023-02-04T04:13:06;101719.03;;;-3.06;97.67
66021;BME280;52789;59.980;30.346;2023-02-04T04:15:32;101725.75;;;-2.99;97.67
66021;BME280;52789;59.980;30.346;2023-02-04T04:17:57;101723.28;;;-3.03;97.65
66021;BME280;52789;59.980;30.346;2023-02-04T04:20:22;101722.16;;;-2.96;98.40
66021;BME280;52789;59.980;30.346;2023-02-04T04:22:50;101732.53;;;-2.95;97.88
66021;BME280;52789;59.980;30.346;2023-02-04T04:25:15;101730.84;;;-2.96;97.50
66021;BME280;52789;59.980;30.346;2023-02-04T04:27:40;101737.75;;;-2.95;98.27
66021;BME280;52789;59.980;30.346;2023-02-04T04:30:06;101735.84;;;-2.90;98.28
66021;BME280;52789;59.980;30.346;2023-02-04T04:32:31;101736.75;;;-2.91;97.87
66021;BME280;52789;59.980;30.346;2023-02-04T04:34:56;101737.69;;;-2.93;97.32
66021;BME280;52789;59.980;30.346;2023-02-04T04:37:22;101748.06;;;-2.92;97.91
66021;BME280;52789;59.980;30.346;2023-02-04T04:39:47;101753.28;;;-2.92;97.65
66021;BME280;52789;59.980;30.346;2023-02-04T04:42:12;101755.09;;;-2.94;98.05
66021;BME280;52789;59.980;30.346;2023-02-04T04:44:38;101769.94;;;-2.96;98.16
66021;BME280;52789;59.980;30.346;2023-02-04T04:47:03;101768.41;;;-3.01;98.42
66021;BME280;52789;59.980;30.346;2023-02-04T04:49:28;101772.66;;;-2.99;98.17
66021;BME280;52789;59.980;30.346;2023-02-04T04:51:54;101775.25;;;-2.99;98.28
66021;BME280;52789;59.980;30.346;2023-02-04T04:54:19;101776.00;;;-2.95;98.32
66021;BME280;52789;59.980;30.346;2023-02-04T04:56:44;101783.06;;;-2.99;98.09
66021;BME280;52789;59.980;30.346;2023-02-04T04:59:10;101793.50;;;-2.99;98.34
66021;BME280;52789;59.980;30.346;2023-02-04T05:01:35;101791.69;;;-2.97;98.90
66021;BME280;52789;59.980;30.346;2023-02-04T05:04:03;101795.09;;;-2.95;98.27
66021;BME280;52789;59.980;30.346;2023-02-04T05:06:28;101794.28;;;-2.97;98.57
66021;BME280;52789;59.980;30.346;2023-02-04T05:08:53;101790.94;;;-3.00;98.77
66021;BME280;52789;59.980;30.346;2023-02-04T05:11:19;101795.19;;;-2.98;98.29
66021;BME280;52789;59.980;30.346;2023-02-04T05:13:45;101803.72;;;-2.93;98.45
66021;BME280;52789;59.980;30.346;2023-02-04T05:16:10;101810.72;;;-2.95;98.78
66021;BME280;52789;59.980;30.346;2023-02-04T05:18:39;101807.28;;;-2.95;98.80
66021;BME280;52789;59.980;30.346;2023-02-04T05:21:04;101816.84;;;-2.96;98.82
66021;BME280;52789;59.980;30.346;2023-02-04T05:23:31;101816.09;;;-2.99;98.76
66021;BME280;52789;59.980;30.346;2023-02-04T05:25:56;101821.47;;;-3.04;99.18
66021;BME280;52789;59.980;30.346;2023-02-04T05:28:21;101822.97;;;-2.97;98.84
66021;BME280;52789;59.980;30.346;2023-02-04T05:30:46;101824.50;;;-2.91;98.97
66021;BME280;52789;59.980;30.346;2023-02-04T05:33:12;101815.66;;;-2.86;99.29
66021;BME280;52789;59.980;30.346;2023-02-04T05:35:37;101825.19;;;-2.85;99.11
66021;BME280;52789;59.980;30.346;2023-02-04T05:38:27;101827.13;;;-2.91;99.40
66021;BME280;52789;59.980;30.346;2023-02-04T05:40:53;101835.78;;;-2.91;99.11
66021;BME280;52789;59.980;30.346;2023-02-04T05:43:18;101839.06;;;-2.84;99.58
66021;BME280;52789;59.980;30.346;2023-02-04T05:45:43;101835.50;;;-2.82;99.04
66021;BME280;52789;59.980;30.346;2023-02-04T05:48:09;101839.88;;;-2.82;99.71
66021;BME280;52789;59.980;30.346;2023-02-04T05:50:34;101836.31;;;-2.79;99.25
66021;BME280;52789;59.980;30.346;2023-02-04T05:52:59;101849.34;;;-2.79;99.44
66021;BME280;52789;59.980;30.346;2023-02-04T05:55:24;101846.72;;;-2.79;99.60
66021;BME280;52789;59.980;30.346;2023-02-04T05:57:50;101853.75;;;-2.82;98.81
66021;BME280;52789;59.980;30.346;2023-02-04T06:00:15;101858.88;;;-2.78;99.83
66021;BME280;52789;59.980;30.346;2023-02-04T06:02:41;101854.50;;;-2.78;99.80
66021;BME280;52789;59.980;30.346;2023-02-04T06:05:09;101857.22;;;-2.81;99.27
66021;BME280;52789;59.980;30.346;2023-02-04T06:07:35;101864.19;;;-2.82;99.13
66021;BME280;52789;59.980;30.346;2023-02-04T06:10:00;101868.59;;;-2.84;99.78
66021;BME280;52789;59.980;30.346;2023-02-04T06:12:25;101869.34;;;-2.80;99.53
66021;BME280;52789;59.980;30.346;2023-02-04T06:14:50;101877.06;;;-2.77;99.50
66021;BME280;52789;59.980;30.346;2023-02-04T06:17:16;101877.22;;;-2.82;99.23
66021;BME280;52789;59.980;30.346;2023-02-04T06:19:41;101883.13;;;-2.76;99.26
66021;BME280;52789;59.980;30.346;2023-02-04T06:22:06;101873.72;;;-2.81;99.73
66021;BME280;52789;59.980;30.346;2023-02-04T06:24:32;101887.50;;;-2.77;99.88
66021;BME280;52789;59.980;30.346;2023-02-04T06:26:57;101885.69;;;-2.75;99.68
66021;BME280;52789;59.980;30.346;2023-02-04T06:29:22;101900.16;;;-2.66;99.06
66021;BME280;52789;59.980;30.346;2023-02-04T06:31:47;101900.97;;;-2.64;98.62
66021;BME280;52789;59.980;30.346;2023-02-04T06:34:13;101904.63;;;-2.70;99.07
66021;BME280;52789;59.980;30.346;2023-02-04T06:36:39;101909.06;;;-2.72;98.49
66021;BME280;52789;59.980;30.346;2023-02-04T06:39:04;101909.09;;;-2.73;98.79
66021;BME280;52789;59.980;30.346;2023-02-04T06:41:29;101908.91;;;-2.67;98.98
66021;BME280;52789;59.980;30.346;2023-02-04T06:43:55;101913.25;;;-2.68;98.79
66021;BME280;52789;59.980;30.346;2023-02-04T06:46:20;101911.56;;;-2.69;99.36
66021;BME280;52789;59.980;30.346;2023-02-04T06:48:45;101921.03;;;-2.66;99.67
66021;BME280;52789;59.980;30.346;2023-02-04T06:51:11;101919.22;;;-2.64;99.22
66021;BME280;52789;59.980;30.346;2023-02-04T06:53:36;101926.06;;;-2.60;100.00
66021;BME280;52789;59.980;30.346;2023-02-04T06:56:01;101932.78;;;-2.53;99.45
66021;BME280;52789;59.980;30.346;2023-02-04T06:58:27;101933.59;;;-2.51;99.48
66021;BME280;52789;59.980;30.346;2023-02-04T07:00:52;101943.97;;;-2.50;99.49
66021;BME280;52789;59.980;30.346;2023-02-04T07:03:17;101948.22;;;-2.47;99.62
66021;BME280;52789;59.980;30.346;2023-02-04T07:05:44;101951.63;;;-2.45;99.19
66021;BME280;52789;59.980;30.346;2023-02-04T07:08:09;101956.75;;;-2.42;99.57
66021;BME280;52789;59.980;30.346;2023-02-04T07:10:34;101953.03;;;-2.35;99.52
66021;BME280;52789;59.980;30.346;2023-02-04T07:13:00;101956.44;;;-2.33;99.23
66021;BME280;52789;59.980;30.346;2023-02-04T07:15:25;101960.66;;;-2.29;99.59
66021;BME280;52789;59.980;30.346;2023-02-04T07:17:50;101965.09;;;-2.31;99.30
66021;BME280;52789;59.980;30.346;2023-02-04T07:20:16;101975.22;;;-2.22;99.93
66021;BME280;52789;59.980;30.346;2023-02-04T07:22:41;101972.34;;;-2.14;99.32
66021;BME280;52789;59.980;30.346;2023-02-04T07:25:07;101983.53;;;-2.10;98.51
66021;BME280;52789;59.980;30.346;2023-02-04T07:27:34;101978.31;;;-2.10;98.72
66021;BME280;52789;59.980;30.346;2023-02-04T07:29:59;101976.72;;;-2.14;98.86
66021;BME280;52789;59.980;30.346;2023-02-04T07:32:24;101982.72;;;-2.12;99.11
66021;BME280;52789;59.980;30.346;2023-02-04T07:34:52;101989.44;;;-2.05;99.12
66021;BME280;52789;59.980;30.346;2023-02-04T07:37:17;101984.16;;;-2.04;98.71
66021;BME280;52789;59.980;30.346;2023-02-04T07:39:45;101995.38;;;-2.00;98.58
66021;BME280;52789;59.980;30.346;2023-02-04T07:42:10;101994.59;;;-2.04;98.51
66021;BME280;52789;59.980;30.346;2023-02-04T07:44:36;101995.56;;;-2.06;99.14
66021;BME280;52789;59.980;30.346;2023-02-04T07:47:02;102001.59;;;-2.04;98.83
66021;BME280;52789;59.980;30.346;2023-02-04T07:49:27;101998.16;;;-2.06;99.05
66021;BME280;52789;59.980;30.346;2023-02-04T07:51:53;102000.88;;;-2.09;99.39
66021;BME280;52789;59.980;30.346;2023-02-04T07:54:18;102008.63;;;-2.06;99.61
66021;BME280;52789;59.980;30.346;2023-02-04T07:56:43;102006.81;;;-2.04;99.00
66021;BME280;52789;59.980;30.346;2023-02-04T07:59:09;102018.25;;;-2.08;99.54
66021;BME280;52789;59.980;30.346;2023-02-04T08:01:34;102018.34;;;-2.11;99.32
66021;BME280;52789;59.980;30.346;2023-02-04T08:03:59;102019.16;;;-2.09;99.06
66021;BME280;52789;59.980;30.346;2023-02-04T08:06:25;102018.47;;;-2.14;100.00
66021;BME280;52789;59.980;30.346;2023-02-04T08:08:50;102028.69;;;-2.08;99.68
66021;BME280;52789;59.980;30.346;2023-02-04T08:11:15;102033.81;;;-2.05;100.00
66021;BME280;52789;59.980;30.346;2023-02-04T08:13:41;102030.00;;;-1.95;99.71
66021;BME280;52789;59.980;30.346;2023-02-04T08:16:09;102033.25;;;-1.89;100.00
66021;BME280;52789;59.980;30.346;2023-02-04T08:18:34;102038.22;;;-1.81;99.79
66021;BME280;52789;59.980;30.346;2023-02-04T08:21:00;102046.75;;;-1.76;99.46
66021;BME280;52789;59.980;30.346;2023-02-04T08:23:26;102055.47;;;-1.77;99.18
66021;BME280;52789;59.980;30.346;2023-02-04T08:25:51;102054.84;;;-1.83;99.84
66021;BME280;52789;59.980;30.346;2023-02-04T08:28:16;102056.59;;;-1.84;99.96
66021;BME280;52789;59.980;30.346;2023-02-04T08:30:42;102059.09;;;-1.81;99.62
66021;BME280;52789;59.980;30.346;2023-02-04T08:33:07;102061.47;;;-1.73;99.48
66021;BME280;52789;59.980;30.346;2023-02-04T08:35:33;102065.78;;;-1.72;99.76
66021;BME280;52789;59.980;30.346;2023-02-04T08:38:04;102063.97;;;-1.70;100.00
66021;BME280;52789;59.980;30.346;2023-02-04T08:40:30;102074.22;;;-1.64;100.00
66021;BME280;52789;59.980;30.346;2023-02-04T08:42:55;102081.03;;;-1.60;99.79
66021;BME280;52789;59.980;30.346;2023-02-04T08:45:20;102089.84;;;-1.63;99.54
66021;BME280;52789;59.980;30.346;2023-02-04T08:47:46;102091.94;;;-1.74;100.00
66021;BME280;52789;59.980;30.346;2023-02-04T08:50:17;102100.88;;;-1.81;100.00
66021;BME280;52789;59.980;30.346;2023-02-04T08:52:52;102097.38;;;-1.80;100.00
66021;BME280;52789;59.980;30.346;2023-02-04T08:55:26;102110.31;;;-1.77;100.00
66021;BME280;52789;59.980;30.346;2023-02-04T08:57:54;102117.25;;;-1.76;100.00
66021;BME280;52789;59.980;30.346;2023-02-04T09:03:11;102115.50;;;-1.75;99.79
66021;BME280;52789;59.980;30.346;2023-02-04T09:05:37;102120.66;;;-1.74;99.53
66021;BME280;52789;59.980;30.346;2023-02-04T09:08:02;102124.09;;;-1.72;100.00
66021;BME280;52789;59.980;30.346;2023-02-04T09:10:27;102126.66;;;-1.70;99.61
66021;BME280;52789;59.980;30.346;2023-02-04T09:12:53;102131.78;;;-1.67;99.77
66021;BME280;52789;59.980;30.346;2023-02-04T09:15:21;102137.66;;;-1.61;100.00
66021;BME280;52789;59.980;30.346;2023-02-04T09:17:46;102136.66;;;-1.57;99.65
66021;BME280;52789;59.980;30.346;2023-02-04T09:20:12;102148.81;;;-1.56;99.39
66021;BME280;52789;59.980;30.346;2023-02-04T09:22:37;102140.16;;;-1.58;99.34
66021;BME280;52789;59.980;30.346;2023-02-04T09:25:02;102148.59;;;-1.49;99.75
66021;BME280;52789;59.980;30.346;2023-02-04T09:27:28;102147.78;;;-1.51;99.88
66021;BME280;52789;59.980;30.346;2023-02-04T09:29:53;102154.78;;;-1.52;99.42
66021;BME280;52789;59.980;30.346;2023-02-04T09:32:18;102151.25;;;-1.51;99.38
66021;BME280;52789;59.980;30.346;2023-02-04T09:34:44;102157.38;;;-1.52;99.14
66021;BME280;52789;59.980;30.346;2023-02-04T09:37:09;102162.38;;;-1.44;99.16
66021;BME280;52789;59.980;30.346;2023-02-04T09:39:34;102170.91;;;-1.39;98.65
66021;BME280;52789;59.980;30.346;2023-02-04T09:42:00;102165.53;;;-1.35;99.06
66021;BME280;52789;59.980;30.346;2023-02-04T09:44:25;102168.88;;;-1.31;98.57
66021;BME280;52789;59.980;30.346;2023-02-04T09:46:53;102178.53;;;-1.33;98.56
66021;BME280;52789;59.980;30.346;2023-02-04T09:49:19;102186.38;;;-1.33;99.06
66021;BME280;52789;59.980;30.346;2023-02-04T09:51:45;102186.75;;;-1.45;98.47
66021;BME280;52789;59.980;30.346;2023-02-04T09:54:12;102187.78;;;-1.49;99.01
66021;BME280;52789;59.980;30.346;2023-02-04T09:56:38;102187.28;;;-1.61;98.88
66021;BME280;52789;59.980;30.346;2023-02-04T09:59:08;102189.00;;;-1.60;99.00
66021;BME280;52789;59.980;30.346;2023-02-04T10:01:35;102196.53;;;-1.50;98.77
66021;BME280;52789;59.980;30.346;2023-02-04T10:04:00;102203.31;;;-1.45;98.60
66021;BME280;52789;59.980;30.346;2023-02-04T10:06:26;102196.53;;;-1.50;97.18
66021;BME280;52789;59.980;30.346;2023-02-04T10:08:51;102191.28;;;-1.50;98.35
66021;BME280;52789;59.980;30.346;2023-02-04T10:11:18;102203.34;;;-1.46;98.09
66021;BME280;52789;59.980;30.346;2023-02-04T10:13:45;102211.00;;;-1.40;97.75
66021;BME280;52789;59.980;30.346;2023-02-04T10:16:12;102222.47;;;-1.44;97.58
66021;BME280;52789;59.980;30.346;2023-02-04T10:18:38;102214.53;;;-1.41;97.89
66021;BME280;52789;59.980;30.346;2023-02-04T10:21:17;102212.81;;;-1.42;97.84
66021;BME280;52789;59.980;30.346;2023-02-04T10:23:43;102213.56;;;-1.39;97.19
66021;BME280;52789;59.980;30.346;2023-02-04T10:26:11;102226.78;;;-1.43;97.29
66021;BME280;52789;59.980;30.346;2023-02-04T10:28:36;102225.84;;;-1.41;97.72
66021;BME280;52789;59.980;30.346;2023-02-04T10:31:02;102231.16;;;-1.44;97.07
66021;BME280;52789;59.980;30.346;2023-02-04T10:33:30;102240.66;;;-1.41;97.62
66021;BME280;52789;59.980;30.346;2023-02-04T10:35:57;102242.75;;;-1.52;96.53
66021;BME280;52789;59.980;30.346;2023-02-04T10:38:22;102240.19;;;-1.54;97.46
66021;BME280;52789;59.980;30.346;2023-02-04T10:40:58;102246.91;;;-1.47;97.80
66021;BME280;52789;59.980;30.346;2023-02-04T10:43:24;102252.81;;;-1.40;96.78
66021;BME280;52789;59.980;30.346;2023-02-04T10:46:02;102256.50;;;-1.47;97.66
66021;BME280;52789;59.980;30.346;2023-02-04T10:48:28;102262.28;;;-1.36;98.75
66021;BME280;52789;59.980;30.346;2023-02-04T10:50:54;102255.94;;;-1.29;97.77
66021;BME280;52789;59.980;30.346;2023-02-04T10:53:21;102263.41;;;-1.45;97.45
66021;BME280;52789;59.980;30.346;2023-02-04T10:56:13;102262.78;;;-1.53;98.53
66021;BME280;52789;59.980;30.346;2023-02-04T10:58:39;102268.41;;;-1.65;99.30
66021;BME280;52789;59.980;30.346;2023-02-04T11:01:08;102276.09;;;-1.61;99.66
66021;BME280;52789;59.980;30.346;2023-02-04T11:03:35;102283.56;;;-1.48;100.00
66021;BME280;52789;59.980;30.346;2023-02-04T11:06:22;102286.91;;;-1.43;98.87
66021;BME280;52789;59.980;30.346;2023-02-04T11:08:48;102285.19;;;-1.44;97.60
66021;BME280;52789;59.980;30.346;2023-02-04T11:11:19;102291.13;;;-1.39;97.66
66021;BME280;52789;59.980;30.346;2023-02-04T11:18:43;102303.88;;;-1.30;97.38
66021;BME280;52789;59.980;30.346;2023-02-04T11:21:12;102313.53;;;-1.32;97.56
66021;BME280;52789;59.980;30.346;2023-02-04T11:23:38;102320.66;;;-1.37;97.46
66021;BME280;52789;59.980;30.346;2023-02-04T11:28:37;102327.50;;;-1.33;96.55
66021;BME280;52789;59.980;30.346;2023-02-04T11:31:11;102326.66;;;-1.34;96.49
66021;BME280;52789;59.980;30.346;2023-02-04T11:33:38;102307.81;;;-1.45;96.53
66021;BME280;52789;59.980;30.346;2023-02-04T11:36:07;102335.44;;;-1.36;96.75
66021;BME280;52789;59.980;30.346;2023-02-04T11:38:33;102336.25;;;-1.34;96.07
66021;BME280;52789;59.980;30.346;2023-02-04T11:40:59;102346.91;;;-1.40;95.61
66021;BME280;52789;59.980;30.346;2023-02-04T11:43:32;102340.91;;;-1.44;95.38
66021;BME280;52789;59.980;30.346;2023-02-04T11:46:04;102348.97;;;-1.51;96.14
66021;BME280;52789;59.980;30.346;2023-02-04T11:48:34;102348.31;;;-1.58;96.35
66021;BME280;52789;59.980;30.346;2023-02-04T11:51:00;102342.31;;;-1.62;96.14
66021;BME280;52789;59.980;30.346;2023-02-04T11:53:29;102356.94;;;-1.56;96.62
66021;BME280;52789;59.980;30.346;2023-02-04T11:55:55;102356.00;;;-1.53;97.09
66021;BME280;52789;59.980;30.346;2023-02-04T11:58:21;102364.56;;;-1.48;96.35
66021;BME280;52789;59.980;30.346;2023-02-04T12:00:50;102378.47;;;-1.48;96.27
66021;BME280;52789;59.980;30.346;2023-02-04T12:03:24;102376.75;;;-1.49;96.47
66021;BME280;52789;59.980;30.346;2023-02-04T12:05:50;102380.31;;;-1.51;96.44
66021;BME280;52789;59.980;30.346;2023-02-04T12:13:20;102388.34;;;-1.58;97.43
66021;BME280;52789;59.980;30.346;2023-02-04T12:16:19;102403.88;;;-1.53;97.71
66021;BME280;52789;59.980;30.346;2023-02-04T12:18:38;102400.28;;;-1.49;97.28
66021;BME280;52789;59.980;30.346;2023-02-04T12:21:03;102409.81;;;-1.48;97.28
66021;BME280;52789;59.980;30.346;2023-02-04T12:23:29;102411.50;;;-1.45;97.72
66021;BME280;52789;59.980;30.346;2023-02-04T12:25:54;102414.84;;;-1.40;97.76
66021;BME280;52789;59.980;30.346;2023-02-04T12:28:20;102416.75;;;-1.47;98.00
66021;BME280;52789;59.980;30.346;2023-02-04T12:30:46;102411.69;;;-1.51;98.36
66021;BME280;52789;59.980;30.346;2023-02-04T12:33:11;102419.38;;;-1.47;99.02
66021;BME280;52789;59.980;30.346;2023-02-04T12:35:36;102429.13;;;-1.52;98.48
66021;BME280;52789;59.980;30.346;2023-02-04T12:38:02;102431.72;;;-1.52;98.81
66021;BME280;52789;59.980;30.346;2023-02-04T12:40:28;102440.59;;;-1.58;98.20
66021;BME280;52789;59.980;30.346;2023-02-04T12:42:53;102445.78;;;-1.56;99.29
66021;BME280;52789;59.980;30.346;2023-02-04T12:45:19;102454.63;;;-1.60;98.59
66021;BME280;52789;59.980;30.346;2023-02-04T12:47:44;102451.16;;;-1.61;98.08
66021;BME280;52789;59.980;30.346;2023-02-04T12:50:11;102456.59;;;-1.68;97.81
66021;BME280;52789;59.980;30.346;2023-02-04T12:52:39;102468.75;;;-1.67;98.45
66021;BME280;52789;59.980;30.346;2023-02-04T12:55:05;102474.84;;;-1.67;97.91